Time;durP1;ratioP1;P1;durP2;ratioP2;P2;SDS_P1;SDS_P2;PMS_P1;PMS_P2;Temp;Humidity;BMP_temperature;BMP_pressure;BME280_temperature;BME280_humidity;BME280_pressure;Samples;Min_cycle;Max_cycle;Signal;HPM_P1;HPM_P2
2023/02/15 00:02:20;;;;;;;;;;;;;;;4.56;76.98;103087.02;108612;1259;125598;-82
2023/02/15 00:04:47;;;;;;;;;;;;;;;4.55;76.99;103085.90;108479;1261;66961;-81
2023/02/15 00:07:14;;;;;;;;;;;;;;;4.54;77.03;103085.84;108548;1259;72973;-81
2023/02/15 00:09:41;;;;;;;;;;;;;;;4.53;77.00;103082.23;108525;1259;125556;-81
2023/02/15 00:12:08;;;;;;;;;;;;;;;4.48;76.94;103079.73;108501;1259;60183;-82
2023/02/15 00:14:35;;;;;;;;;;;;;;;4.43;76.89;103082.11;108463;1259;125582;-82
2023/02/15 00:17:02;;;;;;;;;;;;;;;4.42;77.03;103079.92;108555;1266;67093;-82
2023/02/15 00:19:29;;;;;;;;;;;;;;;4.42;77.10;103081.54;108437;1259;125070;-81
2023/02/15 00:21:56;;;;;;;;;;;;;;;4.45;77.20;103076.36;108689;1259;58214;-82
2023/02/15 00:24:23;;;;;;;;;;;;;;;4.45;77.14;103073.60;108495;1259;59538;-83
2023/02/15 00:26:50;;;;;;;;;;;;;;;4.47;77.21;103073.57;108413;1260;124380;-82
2023/02/15 00:29:17;;;;;;;;;;;;;;;4.49;77.21;103074.64;108572;1259;65889;-82
2023/02/15 00:31:44;;;;;;;;;;;;;;;4.52;77.17;103068.76;108480;1259;124576;-82
2023/02/15 00:34:15;;;;;;;;;;;;;;;4.56;77.33;103065.31;108720;1259;58342;-82
2023/02/15 00:36:42;;;;;;;;;;;;;;;4.59;77.28;103064.58;108602;1259;58809;-82
2023/02/15 00:39:09;;;;;;;;;;;;;;;4.60;77.13;103067.92;108490;1259;126444;-82
2023/02/15 00:41:36;;;;;;;;;;;;;;;4.60;77.14;103063.56;108569;1266;66956;-82
2023/02/15 00:44:03;;;;;;;;;;;;;;;4.60;77.02;103062.74;108475;1259;126074;-82
2023/02/15 00:46:30;;;;;;;;;;;;;;;4.62;77.09;103058.88;108492;1265;59711;-82
2023/02/15 00:48:57;;;;;;;;;;;;;;;4.61;77.02;103055.54;108571;1259;58948;-82
2023/02/15 00:51:24;;;;;;;;;;;;;;;4.62;76.98;103053.67;108566;1259;126379;-83
2023/02/15 00:53:51;;;;;;;;;;;;;;;4.62;76.97;103053.65;108545;1259;67068;-83
2023/02/15 00:56:18;;;;;;;;;;;;;;;4.61;76.96;103046.80;108262;1259;125341;-83
2023/02/15 00:58:45;;;;;;;;;;;;;;;4.59;76.85;103042.48;108428;1259;59628;-83
2023/02/15 01:01:16;;;;;;;;;;;;;;;4.58;76.90;103043.08;108704;1259;60544;-83
2023/02/15 01:03:43;;;;;;;;;;;;;;;4.58;76.95;103040.28;108413;1262;126106;-83
2023/02/15 01:06:10;;;;;;;;;;;;;;;4.55;76.83;103042.98;108472;1262;65744;-83
2023/02/15 01:08:37;;;;;;;;;;;;;;;4.51;76.81;103043.69;108309;1260;124770;-84
2023/02/15 01:11:05;;;;;;;;;;;;;;;4.48;76.82;103040.99;108650;1262;59600;-84
2023/02/15 01:13:32;;;;;;;;;;;;;;;4.48;76.89;103040.94;108451;1260;124719;-84
2023/02/15 01:15:58;;;;;;;;;;;;;;;4.44;76.82;103036.27;108602;1262;74343;-84
2023/02/15 01:18:26;;;;;;;;;;;;;;;4.38;76.95;103035.40;108591;1260;66794;-84
2023/02/15 01:20:53;;;;;;;;;;;;;;;4.32;76.76;103031.04;108566;1261;124607;-83
2023/02/15 01:23:20;;;;;;;;;;;;;;;4.26;76.85;103027.45;108695;1264;58788;-83
2023/02/15 01:25:47;;;;;;;;;;;;;;;4.22;76.93;103023.95;108640;1259;124482;-83
2023/02/15 01:28:13;;;;;;;;;;;;;;;4.21;77.16;103023.33;108589;1265;73177;-83
2023/02/15 01:30:40;;;;;;;;;;;;;;;4.18;77.17;103019.29;108717;1260;67283;-83
2023/02/15 01:33:07;;;;;;;;;;;;;;;4.13;77.05;103016.02;108608;1261;124904;-83
2023/02/15 01:35:34;;;;;;;;;;;;;;;4.06;77.26;103012.70;108600;1265;58388;-83
2023/02/15 01:38:01;;;;;;;;;;;;;;;4.03;77.27;103010.66;108424;1259;125131;-83
2023/02/15 01:40:28;;;;;;;;;;;;;;;4.00;77.30;103010.71;108688;1259;74186;-83
2023/02/15 01:42:55;;;;;;;;;;;;;;;3.96;77.42;103011.39;108699;1263;66277;-82
2023/02/15 01:45:23;;;;;;;;;;;;;;;3.93;77.46;103007.54;108591;1259;124269;-82
2023/02/15 01:47:50;;;;;;;;;;;;;;;3.90;77.46;103006.92;108604;1261;58352;-82
2023/02/15 01:50:20;;;;;;;;;;;;;;;3.88;77.53;103008.15;108596;1259;124823;-83
2023/02/15 01:53:06;;;;;;;;;;;;;;;3.86;77.70;103007.95;108680;1260;72930;-83
2023/02/15 01:55:40;;;;;;;;;;;;;;;3.84;77.69;103009.20;108545;1259;124219;-83
2023/02/15 01:58:06;;;;;;;;;;;;;;;3.81;77.79;103010.30;108457;1264;71119;-83
2023/02/15 02:00:33;;;;;;;;;;;;;;;3.79;77.97;103005.56;108418;1259;58591;-82
2023/02/15 02:03:00;;;;;;;;;;;;;;;3.77;77.94;103006.83;108530;1265;124307;-82
2023/02/15 02:05:27;;;;;;;;;;;;;;;3.78;77.94;103003.59;108591;1259;74004;-83
2023/02/15 02:07:55;;;;;;;;;;;;;;;3.83;78.20;103002.10;108309;1266;125748;-83
2023/02/15 02:10:25;;;;;;;;;;;;;;;3.85;78.09;103004.38;108385;1266;72158;-82
2023/02/15 02:12:53;;;;;;;;;;;;;;;3.87;78.26;103003.68;108508;1266;58358;-81
2023/02/15 02:15:21;;;;;;;;;;;;;;;3.87;78.15;103000.77;108410;1259;125813;-82
2023/02/15 02:17:48;;;;;;;;;;;;;;;3.89;78.20;102996.05;108502;1259;73833;-82
2023/02/15 02:20:15;;;;;;;;;;;;;;;3.92;78.23;102993.20;108467;1259;125340;-83
2023/02/15 02:22:44;;;;;;;;;;;;;;;3.95;78.15;102995.88;108564;1259;71613;-83
2023/02/15 02:25:22;;;;;;;;;;;;;;;3.97;78.26;102988.73;108405;1259;58819;-83
2023/02/15 02:28:04;;;;;;;;;;;;;;;4.00;78.34;102982.41;108374;1261;58666;-82
2023/02/15 02:30:46;;;;;;;;;;;;;;;4.05;78.27;102982.84;108472;1259;74433;-82
2023/02/15 02:33:19;;;;;;;;;;;;;;;4.09;78.23;102979.90;108473;1259;125043;-82
2023/02/15 02:36:04;;;;;;;;;;;;;;;4.09;78.18;102978.52;108686;1259;72959;-82
2023/02/15 02:38:49;;;;;;;;;;;;;;;4.14;78.33;102974.70;108561;1259;125089;-82
2023/02/15 02:41:31;;;;;;;;;;;;;;;4.16;78.22;102973.68;108622;1259;59253;-81
2023/02/15 02:43:58;;;;;;;;;;;;;;;4.18;78.38;102974.40;108447;1264;124561;-82
2023/02/15 02:46:30;;;;;;;;;;;;;;;4.20;78.20;102973.69;108598;1260;67827;-82
2023/02/15 02:48:57;;;;;;;;;;;;;;;4.22;78.17;102972.84;108467;1259;72167;-82
2023/02/15 02:51:24;;;;;;;;;;;;;;;4.22;78.32;102968.69;108416;1262;125804;-82
2023/02/15 02:53:53;;;;;;;;;;;;;;;4.21;78.16;102967.04;108674;1259;59571;-81
2023/02/15 02:56:23;;;;;;;;;;;;;;;4.18;78.09;102969.36;108380;1259;124873;-82
2023/02/15 02:58:51;;;;;;;;;;;;;;;4.16;78.10;102967.48;108602;1259;67109;-82
2023/02/15 03:01:20;;;;;;;;;;;;;;;4.18;78.19;102967.79;108512;1266;72667;-83
2023/02/15 03:03:48;;;;;;;;;;;;;;;4.17;78.08;102965.67;108391;1259;60716;-83
2023/02/15 03:06:18;;;;;;;;;;;;;;;4.19;78.07;102967.72;108444;1259;60715;-83
2023/02/15 03:08:46;;;;;;;;;;;;;;;4.20;78.14;102967.09;108447;1260;124895;-83
2023/02/15 03:11:13;;;;;;;;;;;;;;;4.22;78.16;102965.72;108650;1260;68061;-83
2023/02/15 03:13:40;;;;;;;;;;;;;;;4.26;78.23;102962.77;108488;1262;125989;-81
2023/02/15 03:16:25;;;;;;;;;;;;;;;4.26;78.05;102956.73;108583;1261;59129;-81
2023/02/15 03:18:57;;;;;;;;;;;;;;;4.27;78.13;102954.91;108606;1259;60912;-82
2023/02/15 03:21:31;;;;;;;;;;;;;;;4.27;78.03;102953.70;108420;1263;125417;-81
2023/02/15 03:24:25;;;;;;;;;;;;;;;4.27;78.01;102952.77;108625;1263;67668;-81
2023/02/15 03:26:52;;;;;;;;;;;;;;;4.25;78.05;102951.75;107996;1267;123898;-81
2023/02/15 03:29:19;;;;;;;;;;;;;;;4.24;77.97;102949.55;108133;1265;59576;-81
2023/02/15 03:31:46;;;;;;;;;;;;;;;4.21;77.82;102944.10;107976;1267;125735;-81
2023/02/15 03:34:13;;;;;;;;;;;;;;;4.20;78.01;102942.30;108015;1281;74698;-82
2023/02/15 03:36:49;;;;;;;;;;;;;;;4.19;77.95;102943.04;107877;1273;67575;-82
2023/02/15 03:39:36;;;;;;;;;;;;;;;4.18;77.92;102946.23;107892;1269;124396;-82
2023/02/15 03:42:13;;;;;;;;;;;;;;;4.17;77.93;102945.80;108142;1269;59556;-82
2023/02/15 03:44:49;;;;;;;;;;;;;;;4.17;77.97;102949.29;108170;1267;123887;-82
2023/02/15 03:47:17;;;;;;;;;;;;;;;4.14;77.93;102945.67;108273;1267;74744;-82
2023/02/15 03:49:49;;;;;;;;;;;;;;;4.12;78.03;102945.55;107891;1268;125499;-83
2023/02/15 03:52:16;;;;;;;;;;;;;;;4.12;78.04;102943.32;107969;1267;72361;-81
2023/02/15 03:54:43;;;;;;;;;;;;;;;4.14;78.08;102936.51;108078;1267;59531;-82
2023/02/15 04:02:49;;;;;;;;;;;;;;;4.09;78.03;102935.95;108113;1267;124648;-82
2023/02/15 04:05:16;;;;;;;;;;;;;;;4.08;78.29;102934.81;108658;1262;73262;-82
2023/02/15 04:07:43;;;;;;;;;;;;;;;4.07;78.16;102933.88;108515;1265;124778;-83
2023/02/15 04:12:56;;;;;;;;;;;;;;;3.98;78.15;102925.63;108555;1261;74329;-83
2023/02/15 04:18:08;;;;;;;;;;;;;;;3.92;78.21;102919.38;108632;1261;72764;-83
2023/02/15 04:26:05;;;;;;;;;;;;;;;3.87;78.35;102921.20;108475;1262;124647;-82
2023/02/15 04:28:32;;;;;;;;;;;;;;;3.89;78.47;102922.37;108592;1265;67071;-82
2023/02/15 04:30:59;;;;;;;;;;;;;;;3.89;78.48;102922.92;108565;1265;73362;-82
2023/02/15 04:33:26;;;;;;;;;;;;;;;3.93;78.52;102921.31;108582;1264;125181;-81
2023/02/15 04:35:52;;;;;;;;;;;;;;;3.92;78.64;102923.18;108701;1260;59414;-81
2023/02/15 04:38:19;;;;;;;;;;;;;;;3.92;78.55;102921.30;108601;1263;125602;-81
2023/02/15 04:40:49;;;;;;;;;;;;;;;3.92;78.49;102916.59;108645;1261;67111;-81
2023/02/15 04:43:16;;;;;;;;;;;;;;;3.95;78.59;102911.47;108499;1262;72100;-81
2023/02/15 04:45:47;;;;;;;;;;;;;;;3.99;78.70;102912.34;108451;1261;125025;-81
2023/02/15 04:48:14;;;;;;;;;;;;;;;4.01;78.64;102911.43;108573;1265;59475;-81
2023/02/15 04:50:41;;;;;;;;;;;;;;;4.00;78.69;102907.55;108575;1261;126602;-81
2023/02/15 04:53:07;;;;;;;;;;;;;;;4.03;78.67;102908.70;108703;1260;65666;-82
2023/02/15 04:55:34;;;;;;;;;;;;;;;4.05;78.55;102903.44;108434;1261;126011;-81
2023/02/15 04:58:01;;;;;;;;;;;;;;;4.05;78.54;102902.91;108613;1263;59290;-80
2023/02/15 05:00:28;;;;;;;;;;;;;;;4.04;78.62;102902.13;108671;1261;60807;-80
2023/02/15 05:02:55;;;;;;;;;;;;;;;4.06;78.57;102901.83;108593;1263;125011;-80
2023/02/15 05:05:22;;;;;;;;;;;;;;;4.09;78.62;102895.14;108594;1260;67035;-81
2023/02/15 05:07:49;;;;;;;;;;;;;;;4.12;78.64;102896.76;108519;1263;125159;-81
2023/02/15 05:10:16;;;;;;;;;;;;;;;4.15;78.54;102901.36;108609;1261;59351;-81
2023/02/15 05:12:43;;;;;;;;;;;;;;;4.15;78.47;102900.28;108648;1262;59366;-82
2023/02/15 05:15:10;;;;;;;;;;;;;;;4.15;78.51;102901.29;108451;1262;125102;-81
2023/02/15 05:17:37;;;;;;;;;;;;;;;4.16;78.60;102898.64;108444;1265;66457;-81
2023/02/15 05:20:04;;;;;;;;;;;;;;;4.18;78.47;102894.46;108511;1261;125610;-80
2023/02/15 05:22:31;;;;;;;;;;;;;;;4.18;78.59;102894.12;108552;1265;60139;-81
2023/02/15 05:30:28;;;;;;;;;;;;;;;4.20;78.42;102890.98;108673;1260;66090;-80
2023/02/15 05:32:55;;;;;;;;;;;;;;;4.18;78.43;102890.85;108440;1260;125174;-78
2023/02/15 05:35:23;;;;;;;;;;;;;;;4.15;78.43;102888.52;108559;1261;59475;-80
2023/02/15 05:37:50;;;;;;;;;;;;;;;4.10;78.43;102888.94;108531;1265;124698;-84
2023/02/15 05:40:17;;;;;;;;;;;;;;;4.10;78.43;102885.63;108633;1260;73720;-83
2023/02/15 05:42:44;;;;;;;;;;;;;;;4.10;78.53;102881.15;108522;1262;65781;-81
2023/02/15 05:45:11;;;;;;;;;;;;;;;4.09;78.49;102882.79;108396;1265;125824;-81
2023/02/15 05:47:38;;;;;;;;;;;;;;;4.06;78.50;102884.83;108572;1265;59102;-82
2023/02/15 05:50:05;;;;;;;;;;;;;;;4.05;78.59;102881.95;108623;1260;124574;-82
2023/02/15 05:52:32;;;;;;;;;;;;;;;4.08;78.65;102883.19;108591;1261;72143;-82
2023/02/15 05:55:00;;;;;;;;;;;;;;;4.06;78.56;102878.34;108686;1260;65834;-82
2023/02/15 05:57:27;;;;;;;;;;;;;;;4.02;78.55;102873.69;108410;1260;124106;-82
2023/02/15 05:59:53;;;;;;;;;;;;;;;4.00;78.56;102874.23;108714;1265;59536;-82
2023/02/15 06:02:24;;;;;;;;;;;;;;;3.96;78.50;102877.52;108611;1264;124353;-82
2023/02/15 06:04:51;;;;;;;;;;;;;;;3.93;78.52;102876.23;108516;1261;72182;-82
2023/02/15 06:07:18;;;;;;;;;;;;;;;3.92;78.75;102873.47;108549;1259;66678;-83
2023/02/15 06:09:44;;;;;;;;;;;;;;;3.88;78.71;102873.55;108532;1261;124765;-82
2023/02/15 06:12:11;;;;;;;;;;;;;;;3.85;78.79;102871.75;108580;1263;59476;-82
2023/02/15 06:14:38;;;;;;;;;;;;;;;3.84;78.78;102870.58;108548;1261;124586;-81
2023/02/15 06:17:06;;;;;;;;;;;;;;;3.84;78.92;102868.65;108545;1261;74057;-82
2023/02/15 06:19:33;;;;;;;;;;;;;;;3.90;78.99;102866.91;108525;1265;125212;-82
2023/02/15 06:21:59;;;;;;;;;;;;;;;3.88;78.80;102868.48;108662;1260;72731;-82
2023/02/15 06:24:26;;;;;;;;;;;;;;;3.86;78.86;102866.95;108515;1260;59504;-81
2023/02/15 06:26:53;;;;;;;;;;;;;;;3.87;78.95;102869.42;108415;1260;126040;-81
2023/02/15 06:29:20;;;;;;;;;;;;;;;3.88;78.92;102870.08;108586;1260;75485;-81
2023/02/15 06:31:56;;;;;;;;;;;;;;;3.91;79.06;102871.34;108350;1263;125500;-80
2023/02/15 06:34:25;;;;;;;;;;;;;;;3.94;78.95;102869.12;108524;1265;73725;-80
2023/02/15 06:36:52;;;;;;;;;;;;;;;3.95;78.94;102870.80;108527;1260;59556;-81
2023/02/15 06:39:19;;;;;;;;;;;;;;;3.97;78.99;102869.94;108473;1265;125683;-81
2023/02/15 06:41:46;;;;;;;;;;;;;;;4.00;79.12;102868.45;108589;1268;73426;-81
2023/02/15 06:44:26;;;;;;;;;;;;;;;4.04;79.13;102868.77;108464;1259;125703;-81
2023/02/15 06:46:53;;;;;;;;;;;;;;;4.06;79.06;102867.39;108608;1260;72668;-81
2023/02/15 06:49:20;;;;;;;;;;;;;;;4.05;78.80;102865.91;108474;1260;59740;-81
2023/02/15 06:51:47;;;;;;;;;;;;;;;4.04;78.83;102863.42;108358;1261;125074;-80
2023/02/15 06:54:13;;;;;;;;;;;;;;;4.05;78.83;102860.73;108718;1260;74520;-81
2023/02/15 06:56:40;;;;;;;;;;;;;;;4.07;78.91;102859.70;108506;1260;125109;-81
2023/02/15 06:59:07;;;;;;;;;;;;;;;4.12;79.00;102856.46;108633;1260;72837;-81
2023/02/15 07:01:36;;;;;;;;;;;;;;;4.15;78.89;102854.98;108592;1259;125152;-82
2023/02/15 07:04:17;;;;;;;;;;;;;;;4.18;79.00;102850.69;108457;1260;59933;-82
2023/02/15 07:06:47;;;;;;;;;;;;;;;4.21;78.96;102849.17;108692;1263;74393;-82
2023/02/15 07:09:44;;;;;;;;;;;;;;;4.22;78.84;102848.94;108455;1260;124807;-82
2023/02/15 07:15:06;;;;;;;;;;;;;;;4.26;78.81;102844.20;108408;1260;125843;-82
2023/02/15 07:17:35;;;;;;;;;;;;;;;4.27;78.84;102841.27;108524;1265;60169;-82
2023/02/15 07:20:17;;;;;;;;;;;;;;;4.31;78.77;102839.41;108538;1260;125213;-82
2023/02/15 07:22:45;;;;;;;;;;;;;;;4.29;78.76;102841.36;108585;1260;66020;-82
2023/02/15 07:25:16;;;;;;;;;;;;;;;4.30;78.66;102839.70;108697;1261;72735;-82
2023/02/15 07:28:06;;;;;;;;;;;;;;;4.30;78.75;102833.83;108705;1260;59578;-82
2023/02/15 07:30:38;;;;;;;;;;;;;;;4.31;78.73;102837.84;108643;1260;59447;-81
2023/02/15 07:33:23;;;;;;;;;;;;;;;4.32;78.81;102837.42;108474;1260;124309;-81
2023/02/15 07:35:50;;;;;;;;;;;;;;;4.37;78.85;102834.36;108640;1261;66383;-81
2023/02/15 07:38:17;;;;;;;;;;;;;;;4.38;78.92;102834.11;108590;1260;125009;-81
2023/02/15 07:40:44;;;;;;;;;;;;;;;4.37;78.78;102837.48;108721;1260;59482;-81
2023/02/15 07:43:11;;;;;;;;;;;;;;;4.34;78.81;102836.77;108642;1259;59598;-81
2023/02/15 07:45:38;;;;;;;;;;;;;;;4.37;78.76;102830.77;108484;1259;125010;-81
2023/02/15 07:48:05;;;;;;;;;;;;;;;4.41;79.11;102829.02;108665;1260;66799;-81
2023/02/15 07:50:32;;;;;;;;;;;;;;;4.44;78.93;102826.33;108550;1259;125060;-81
2023/02/15 07:53:09;;;;;;;;;;;;;;;4.46;78.82;102826.60;108469;1261;59201;-81
2023/02/15 07:55:58;;;;;;;;;;;;;;;4.50;78.91;102826.05;108421;1273;124758;-82
2023/02/15 08:01:13;;;;;;;;;;;;;;;4.57;78.96;102816.54;108678;1263;67693;-82
2023/02/15 08:03:40;;;;;;;;;;;;;;;4.59;78.95;102810.98;108506;1260;125478;-82
2023/02/15 08:06:07;;;;;;;;;;;;;;;4.63;78.93;102811.36;108654;1260;59096;-82
2023/02/15 08:08:35;;;;;;;;;;;;;;;4.67;78.88;102807.47;108488;1260;124470;-82
2023/02/15 08:11:28;;;;;;;;;;;;;;;4.72;78.96;102802.34;108645;1260;75261;-81
2023/02/15 08:13:58;;;;;;;;;;;;;;;4.81;78.87;102795.23;108442;1265;125262;-82
2023/02/15 08:16:30;;;;;;;;;;;;;;;4.86;78.82;102789.52;108563;1261;72379;-81
2023/02/15 08:18:57;;;;;;;;;;;;;;;4.94;78.96;102789.63;108478;1276;59537;-82
2023/02/15 08:21:27;;;;;;;;;;;;;;;5.04;78.86;102789.25;108507;1267;124773;-82
2023/02/15 08:23:55;;;;;;;;;;;;;;;5.15;78.79;102791.86;108512;1260;74892;-82
2023/02/15 08:26:22;;;;;;;;;;;;;;;5.21;78.64;102788.33;108465;1260;126054;-81
2023/02/15 08:28:50;;;;;;;;;;;;;;;5.27;78.65;102790.05;108624;1260;72672;-82
2023/02/15 08:31:17;;;;;;;;;;;;;;;5.37;78.65;102784.85;108560;1260;59671;-82
2023/02/15 08:36:58;;;;;;;;;;;;;;;5.49;78.25;102778.52;108557;1260;73451;-82
2023/02/15 08:39:25;;;;;;;;;;;;;;;5.49;78.11;102778.13;108466;1260;126452;-81
2023/02/15 08:41:53;;;;;;;;;;;;;;;5.54;78.09;102775.39;108369;1267;70268;-80
2023/02/15 08:44:20;;;;;;;;;;;;;;;5.57;78.03;102777.39;108333;1261;126269;-81
2023/02/15 08:46:47;;;;;;;;;;;;;;;5.60;78.00;102774.67;108486;1260;60648;-82
2023/02/15 08:49:15;;;;;;;;;;;;;;;5.67;77.97;102771.66;108482;1259;73060;-81
2023/02/15 08:51:42;;;;;;;;;;;;;;;5.73;77.89;102770.08;108362;1260;124061;-81
2023/02/15 08:54:11;;;;;;;;;;;;;;;5.75;77.72;102769.55;108555;1264;72370;-81
2023/02/15 08:56:38;;;;;;;;;;;;;;;5.77;77.75;102761.14;108319;1260;125002;-81
2023/02/15 08:59:06;;;;;;;;;;;;;;;5.79;77.62;102758.55;108446;1275;59505;-81
2023/02/15 09:01:33;;;;;;;;;;;;;;;5.82;77.56;102755.27;108392;1260;124321;-81
2023/02/15 09:04:01;;;;;;;;;;;;;;;5.83;77.52;102752.76;108478;1260;67682;-81
2023/02/15 09:06:28;;;;;;;;;;;;;;;5.87;77.50;102754.39;108503;1260;73776;-81
2023/02/15 09:08:55;;;;;;;;;;;;;;;5.86;77.35;102752.98;108396;1260;125869;-81
2023/02/15 09:11:23;;;;;;;;;;;;;;;5.88;77.42;102754.70;108713;1260;59657;-81
2023/02/15 09:13:54;;;;;;;;;;;;;;;5.88;77.23;102752.89;108644;1259;123845;-81
2023/02/15 09:16:21;;;;;;;;;;;;;;;5.84;77.16;102751.76;108365;1263;235788;-81
2023/02/15 09:18:48;;;;;;;;;;;;;;;5.83;77.15;102752.88;108607;1260;72701;-81
2023/02/15 09:21:16;;;;;;;;;;;;;;;5.80;77.03;102753.20;108493;1260;125946;-81
2023/02/15 09:23:43;;;;;;;;;;;;;;;5.79;76.99;102748.43;108581;1260;59511;-81
2023/02/15 09:26:11;;;;;;;;;;;;;;;5.78;76.91;102746.44;108570;1259;125243;-81
2023/02/15 09:28:38;;;;;;;;;;;;;;;5.77;76.68;102748.42;108646;1260;67105;-81
2023/02/15 09:31:09;;;;;;;;;;;;;;;5.76;76.74;102749.44;108600;1260;71687;-81
2023/02/15 09:33:36;;;;;;;;;;;;;;;5.78;76.68;102744.63;108428;1260;125414;-81
2023/02/15 09:36:04;;;;;;;;;;;;;;;5.77;76.36;102742.89;108532;1260;59264;-81
2023/02/15 09:38:31;;;;;;;;;;;;;;;5.74;76.27;102744.59;108468;1260;124710;-81
2023/02/15 09:41:09;;;;;;;;;;;;;;;5.78;76.26;102744.01;108529;1264;68161;-81
2023/02/15 09:43:55;;;;;;;;;;;;;;;5.83;76.13;102739.16;108322;1260;125790;-81
2023/02/15 09:46:28;;;;;;;;;;;;;;;5.87;75.95;102741.16;108468;1260;59933;-81
2023/02/15 09:49:08;;;;;;;;;;;;;;;5.88;75.83;102737.95;108587;1260;59123;-81
2023/02/15 09:51:44;;;;;;;;;;;;;;;5.91;75.70;102730.19;108384;1262;125043;-81
2023/02/15 09:54:14;;;;;;;;;;;;;;;5.95;75.75;102729.45;108561;1260;65538;-81
2023/02/15 09:56:48;;;;;;;;;;;;;;;5.98;75.30;102726.52;108571;1263;125536;-81
2023/02/15 09:59:21;;;;;;;;;;;;;;;5.95;75.07;102722.64;108621;1274;59458;-81
2023/02/15 10:01:54;;;;;;;;;;;;;;;5.96;74.92;102718.73;108375;1260;125352;-82
2023/02/15 10:04:24;;;;;;;;;;;;;;;5.94;74.80;102721.52;108561;1259;73447;-81
2023/02/15 10:07:11;;;;;;;;;;;;;;;5.94;74.78;102712.46;108484;1259;66738;-81
2023/02/15 10:09:57;;;;;;;;;;;;;;;5.96;74.77;102706.34;108587;1259;125480;-81
2023/02/15 10:12:29;;;;;;;;;;;;;;;6.01;74.75;102703.75;108635;1260;59406;-81
2023/02/15 10:15:11;;;;;;;;;;;;;;;6.02;74.54;102706.69;108454;1259;124279;-81
2023/02/15 10:17:54;;;;;;;;;;;;;;;6.03;74.39;102702.20;108588;1259;74533;-81
2023/02/15 10:20:28;;;;;;;;;;;;;;;6.03;74.18;102699.23;108367;1260;125170;-81
2023/02/15 10:23:06;;;;;;;;;;;;;;;6.06;74.21;102698.04;108446;1266;71688;-81
2023/02/15 10:26:02;;;;;;;;;;;;;;;6.16;74.13;102700.67;108436;1260;125786;-81
2023/02/15 10:28:42;;;;;;;;;;;;;;;6.19;73.91;102696.20;108134;1260;60229;-81
2023/02/15 10:31:27;;;;;;;;;;;;;;;6.23;73.89;102696.16;108436;1259;74915;-81
2023/02/15 10:34:03;;;;;;;;;;;;;;;6.28;73.96;102693.19;108285;1260;125960;-81
2023/02/15 10:36:39;;;;;;;;;;;;;;;6.38;73.91;102695.13;108452;1261;71422;-82
2023/02/15 10:39:19;;;;;;;;;;;;;;;6.48;73.76;102692.94;108439;1261;125660;-81
2023/02/15 10:41:50;;;;;;;;;;;;;;;6.53;73.75;102693.58;108549;1260;59936;-81
2023/02/15 10:44:36;;;;;;;;;;;;;;;6.62;73.71;102689.54;108524;1259;125167;-81
2023/02/15 10:47:08;;;;;;;;;;;;;;;6.66;73.37;102683.36;108690;1259;65370;-82
2023/02/15 10:49:35;;;;;;;;;;;;;;;6.68;73.28;102677.61;108478;1267;124247;-81
2023/02/15 10:52:14;;;;;;;;;;;;;;;6.72;73.47;102671.43;108665;1260;59273;-82
2023/02/15 10:54:41;;;;;;;;;;;;;;;6.80;73.37;102672.03;108579;1264;60165;-81
2023/02/15 10:57:12;;;;;;;;;;;;;;;6.81;73.18;102667.39;108568;1263;124405;-81
2023/02/15 10:59:45;;;;;;;;;;;;;;;6.85;73.12;102665.19;108511;1271;67627;-81
2023/02/15 11:02:16;;;;;;;;;;;;;;;6.90;73.17;102662.77;108500;1263;124656;-81
2023/02/15 11:04:46;;;;;;;;;;;;;;;6.96;72.98;102661.77;108616;1263;59096;-81
2023/02/15 11:07:17;;;;;;;;;;;;;;;6.97;72.82;102657.48;108588;1260;59569;-81
2023/02/15 11:09:46;;;;;;;;;;;;;;;7.00;72.83;102656.00;108500;1260;130303;-81
2023/02/15 11:12:14;;;;;;;;;;;;;;;6.99;72.75;102652.44;108615;1261;67100;-82
2023/02/15 11:14:47;;;;;;;;;;;;;;;6.96;72.59;102645.94;108480;1259;123832;-81
2023/02/15 11:17:16;;;;;;;;;;;;;;;6.95;72.56;102642.02;108536;1260;59336;-81
2023/02/15 11:19:46;;;;;;;;;;;;;;;6.94;72.49;102636.68;108437;1259;124124;-82
2023/02/15 11:22:13;;;;;;;;;;;;;;;6.96;72.43;102636.70;108701;1259;74729;-81
2023/02/15 11:24:44;;;;;;;;;;;;;;;6.97;72.39;102637.61;108530;1260;67688;-83
2023/02/15 11:27:11;;;;;;;;;;;;;;;6.99;72.32;102634.05;108519;1260;124813;-84
2023/02/15 11:29:55;;;;;;;;;;;;;;;7.05;72.39;102630.14;108716;1260;59212;-81
2023/02/15 11:32:28;;;;;;;;;;;;;;;7.11;72.36;102625.48;108518;1262;124929;-81
2023/02/15 11:34:58;;;;;;;;;;;;;;;7.14;72.07;102626.52;108664;1259;73392;-81
2023/02/15 11:37:27;;;;;;;;;;;;;;;7.11;72.00;102622.70;108656;1259;66161;-81
2023/02/15 11:39:54;;;;;;;;;;;;;;;7.11;71.90;102623.70;108550;1260;71655;-82
2023/02/15 11:42:23;;;;;;;;;;;;;;;7.07;71.74;102621.66;108678;1259;59428;-81
2023/02/15 11:45:26;;;;;;;;;;;;;;;7.07;71.83;102615.95;108510;1259;125265;-81
2023/02/15 11:47:53;;;;;;;;;;;;;;;7.18;71.92;102612.84;108076;1267;74433;-81
2023/02/15 11:50:25;;;;;;;;;;;;;;;7.26;71.83;102608.02;107910;1267;124865;-82
2023/02/15 11:52:52;;;;;;;;;;;;;;;7.33;71.72;102609.02;107913;1268;73115;-81
2023/02/15 11:55:20;;;;;;;;;;;;;;;7.38;71.51;102610.58;107859;1270;59928;-82
2023/02/15 11:57:50;;;;;;;;;;;;;;;7.40;71.24;102608.91;107849;1269;125267;-82
2023/02/15 12:00:17;;;;;;;;;;;;;;;7.46;71.29;102605.16;107919;1270;75827;-82
2023/02/15 12:02:45;;;;;;;;;;;;;;;7.57;71.35;102599.94;107856;1268;125872;-82
2023/02/15 12:05:13;;;;;;;;;;;;;;;7.66;71.29;102595.61;108024;1267;71436;-82
2023/02/15 12:08:18;;;;;;;;;;;;;;;7.69;70.99;102588.70;107930;1267;124574;-82
2023/02/15 12:11:02;;;;;;;;;;;;;;;7.68;70.65;102584.09;107907;1267;60338;-82
2023/02/15 12:13:30;;;;;;;;;;;;;;;7.64;70.46;102579.23;108083;1267;74127;-82
2023/02/15 12:15:57;;;;;;;;;;;;;;;7.65;70.47;102580.84;108029;1267;125699;-82
2023/02/15 12:18:40;;;;;;;;;;;;;;;7.69;70.56;102572.40;108062;1267;72704;-82
2023/02/15 12:21:07;;;;;;;;;;;;;;;7.73;70.42;102571.63;107791;1267;124966;-82
2023/02/15 12:23:34;;;;;;;;;;;;;;;7.72;70.38;102571.73;108562;1260;60145;-82
2023/02/15 12:26:01;;;;;;;;;;;;;;;7.76;70.36;102570.95;108512;1260;124051;-82
2023/02/15 12:28:36;;;;;;;;;;;;;;;7.80;70.24;102569.51;108674;1259;65964;-82
2023/02/15 12:31:03;;;;;;;;;;;;;;;7.83;70.08;102566.15;108461;1266;73290;-82
2023/02/15 12:33:41;;;;;;;;;;;;;;;7.82;69.82;102561.02;108335;1259;124714;-82
2023/02/15 12:36:11;;;;;;;;;;;;;;;7.74;69.77;102560.70;108628;1261;60085;-82
2023/02/15 12:38:38;;;;;;;;;;;;;;;7.79;69.98;102559.62;108563;1259;124507;-82
2023/02/15 12:41:21;;;;;;;;;;;;;;;7.84;69.77;102556.23;108746;1259;67177;-83
2023/02/15 12:43:48;;;;;;;;;;;;;;;7.80;69.62;102560.74;108619;1259;125538;-82
2023/02/15 12:46:25;;;;;;;;;;;;;;;7.79;69.48;102561.03;108572;1261;59539;-82
2023/02/15 12:49:24;;;;;;;;;;;;;;;7.74;69.37;102558.27;108460;1275;59742;-83
2023/02/15 12:51:52;;;;;;;;;;;;;;;7.69;69.24;102556.90;107955;1267;123740;-83
2023/02/15 12:54:22;;;;;;;;;;;;;;;7.67;69.43;102553.98;108066;1282;68751;-82
2023/02/15 12:56:49;;;;;;;;;;;;;;;7.67;69.38;102551.17;107898;1270;125709;-82
2023/02/15 12:59:16;;;;;;;;;;;;;;;7.65;69.40;102551.39;107920;1267;59335;-82
2023/02/15 13:01:44;;;;;;;;;;;;;;;7.66;69.40;102552.13;107895;1267;124841;-82
2023/02/15 13:04:14;;;;;;;;;;;;;;;7.70;69.52;102552.21;108126;1267;74374;-82
2023/02/15 13:06:46;;;;;;;;;;;;;;;7.68;69.17;102548.24;108155;1267;66845;-82
2023/02/15 13:09:48;;;;;;;;;;;;;;;7.56;69.05;102541.54;108048;1267;124894;-82
2023/02/15 13:12:23;;;;;;;;;;;;;;;7.47;69.12;102538.64;107555;1271;59342;-82
2023/02/15 13:14:51;;;;;;;;;;;;;;;7.39;68.98;102532.22;107398;1273;124597;-82
2023/02/15 13:17:29;;;;;;;;;;;;;;;7.34;68.97;102528.19;107524;1273;75096;-82
2023/02/15 13:19:57;;;;;;;;;;;;;;;7.29;69.07;102525.95;107339;1273;124595;-82
2023/02/15 13:22:32;;;;;;;;;;;;;;;7.28;69.19;102526.60;107386;1273;72236;-82